Crescent Park, Kentucky
Current Conditions -  °F | °C
As of 5:55 PM on Friday 31 Oct 2014 (Local Time) from KI69 Reporting Station
Overcast Overcast  
Wind Chill: 35°   Ceiling: 2300
Heat Index: 39°   Visibility: 10mi
Dew Point: 36°   Wind: 6mph
Humidity: 87%   Direction: 330°NNW
Pressure: 29.94"   Gusts: NA
Location:  39.0279°N, 84.5635°W
Report Text: KI69 312155Z AUTO 33005KT 10SM SCT013 OVC023 04/02 A2994 RMK AO1 P0001
Loading
Personal Weather Stations






























Interactive Weather Map
Tropical Storm Tracking
New forecast layout! Learn more

10-Day Weather Forecast

Advertisements
Track Severe Weather on mobile